Time;durP1;ratioP1;P1;durP2;ratioP2;P2;SDS_P1;SDS_P2;PMS_P1;PMS_P2;Temp;Humidity;BMP_temperature;BMP_pressure;BME280_temperature;BME280_humidity;BME280_pressure;Samples;Min_cycle;Max_cycle;Signal;HPM_P1;HPM_P2
2021/05/10 00:02:10;;;;;;;24.65;14.90;;;;;;;5.38;70.95;100441.56;130004;1101;22602;-66
2021/05/10 00:04:38;;;;;;;26.10;15.45;;;;;;;5.38;70.79;100445.09;129976;1102;22493;-66
2021/05/10 00:07:09;;;;;;;25.80;15.10;;;;;;;5.37;70.61;100448.00;130001;1101;23581;-69
2021/05/10 00:09:36;;;;;;;31.03;14.43;;;;;;;5.34;70.70;100443.83;129917;1101;22589;-69
2021/05/10 00:12:05;;;;;;;22.77;13.37;;;;;;;5.31;70.68;100441.55;129999;1101;22497;-69
2021/05/10 00:14:42;;;;;;;20.75;11.45;;;;;;;5.30;70.36;100438.02;129954;1101;22590;-69
2021/05/10 00:17:16;;;;;;;24.15;12.75;;;;;;;5.28;70.38;100445.48;129978;1101;22583;-69
2021/05/10 00:19:44;;;;;;;22.15;11.60;;;;;;;5.28;70.70;100441.95;129970;1101;22994;-69
2021/05/10 00:22:12;;;;;;;26.30;11.50;;;;;;;5.26;70.74;100444.01;129969;1101;23298;-68
2021/05/10 00:24:41;;;;;;;20.50;12.90;;;;;;;5.26;70.28;100446.71;129960;1101;22592;-68
2021/05/10 00:27:09;;;;;;;19.30;11.75;;;;;;;5.26;70.65;100447.55;129968;1101;23215;-68
2021/05/10 00:29:37;;;;;;;21.50;13.20;;;;;;;5.27;70.38;100449.22;129969;1101;22543;-68
2021/05/10 00:32:06;;;;;;;25.30;11.43;;;;;;;5.26;70.27;100450.25;130007;1101;22598;-68
2021/05/10 00:34:33;;;;;;;20.30;10.80;;;;;;;5.24;70.75;100438.80;129964;1101;22644;-66
2021/05/10 00:37:01;;;;;;;21.65;10.45;;;;;;;5.21;70.77;100444.59;129985;1101;23525;-66
2021/05/10 00:39:29;;;;;;;20.70;10.90;;;;;;;5.20;71.10;100444.80;129949;1101;22693;-65
2021/05/10 00:41:58;;;;;;;17.83;9.57;;;;;;;5.17;71.19;100446.06;129964;1101;23042;-65
2021/05/10 00:44:26;;;;;;;17.75;9.35;;;;;;;5.15;71.41;100453.52;129964;1101;22526;-65
2021/05/10 00:46:54;;;;;;;14.40;8.40;;;;;;;5.13;71.42;100452.05;129980;1101;22634;-65
2021/05/10 00:49:22;;;;;;;15.70;8.45;;;;;;;5.13;71.47;100452.05;129975;1101;22570;-65
2021/05/10 00:51:50;;;;;;;12.45;8.20;;;;;;;5.12;71.65;100451.22;129994;1101;23734;-65
2021/05/10 00:54:18;;;;;;;16.70;8.45;;;;;;;5.08;71.33;100460.74;129993;1101;22547;-66
2021/05/10 00:56:46;;;;;;;15.60;9.65;;;;;;;5.09;71.78;100457.02;129984;1101;23092;-65
2021/05/10 00:59:14;;;;;;;19.65;10.70;;;;;;;5.09;71.46;100458.88;130018;1101;22716;-67
2021/05/10 01:01:42;;;;;;;16.20;9.25;;;;;;;5.10;71.35;100468.65;129944;1101;22595;-68
2021/05/10 01:04:11;;;;;;;17.80;9.75;;;;;;;5.07;71.16;100460.94;129767;1102;22592;-67
2021/05/10 01:06:39;;;;;;;16.75;10.40;;;;;;;5.06;71.44;100462.80;129988;1101;22759;-67
2021/05/10 01:09:08;;;;;;;26.15;11.80;;;;;;;5.05;71.51;100463.83;130019;1101;22583;-67
2021/05/10 01:11:36;;;;;;;26.00;13.50;;;;;;;5.01;71.55;100462.59;129699;1102;22645;-67
2021/05/10 01:14:03;;;;;;;23.85;13.60;;;;;;;4.96;71.44;100462.34;129943;1101;23402;-67
2021/05/10 01:16:31;;;;;;;20.60;12.70;;;;;;;4.92;71.73;100461.89;129975;1101;22611;-68
2021/05/10 01:18:59;;;;;;;23.75;12.35;;;;;;;4.93;71.35;100468.13;129945;1101;23725;-68
2021/05/10 01:21:28;;;;;;;17.30;10.55;;;;;;;4.94;71.22;100472.50;129964;1101;22581;-66
2021/05/10 01:23:56;;;;;;;21.03;11.37;;;;;;;4.95;71.34;100466.07;129999;1101;22682;-66
2021/05/10 01:26:24;;;;;;;21.50;10.67;;;;;;;4.98;71.21;100471.91;129956;1101;22647;-66
2021/05/10 01:28:52;;;;;;;22.65;9.85;;;;;;;5.03;71.01;100473.20;129980;1101;22661;-66
2021/05/10 01:31:20;;;;;;;18.85;9.75;;;;;;;5.06;71.20;100470.07;129934;1101;22534;-66
2021/05/10 01:33:48;;;;;;;16.20;10.10;;;;;;;5.07;70.60;100479.84;129975;1101;22640;-66
2021/05/10 01:36:15;;;;;;;15.47;9.70;;;;;;;5.07;70.68;100475.28;129936;1101;22587;-66
2021/05/10 01:38:43;;;;;;;13.45;8.95;;;;;;;5.07;70.93;100482.55;130021;1101;22538;-66
2021/05/10 01:41:11;;;;;;;17.65;9.65;;;;;;;5.06;70.13;100483.58;130006;1101;22870;-66
2021/05/10 01:43:39;;;;;;;16.77;8.70;;;;;;;5.05;70.50;100482.74;129996;1101;22596;-66
2021/05/10 01:46:07;;;;;;;17.25;9.70;;;;;;;5.04;70.18;100481.10;130038;1101;22542;-66
2021/05/10 01:48:35;;;;;;;17.80;10.20;;;;;;;5.01;70.25;100483.36;129952;1101;22576;-65
2021/05/10 01:51:04;;;;;;;16.80;9.97;;;;;;;4.98;70.26;100482.72;129991;1101;22567;-65
2021/05/10 01:53:33;;;;;;;19.90;9.95;;;;;;;4.95;70.61;100476.88;130028;1101;23463;-66
2021/05/10 01:56:01;;;;;;;15.60;9.33;;;;;;;4.90;71.10;100480.19;129984;1101;22624;-65
2021/05/10 01:58:29;;;;;;;14.50;8.10;;;;;;;4.88;71.09;100482.25;129914;1101;22520;-65
2021/05/10 02:00:57;;;;;;;11.05;7.35;;;;;;;4.88;70.92;100493.05;130034;1101;22556;-65
2021/05/10 02:03:27;;;;;;;13.37;7.03;;;;;;;4.88;70.67;100495.75;129962;1101;22529;-65
2021/05/10 02:05:54;;;;;;;11.90;6.45;;;;;;;4.80;70.72;100481.55;130001;1101;23461;-65
2021/05/10 02:08:22;;;;;;;9.00;5.75;;;;;;;4.90;70.99;100496.39;129958;1101;23551;-65
2021/05/10 02:10:54;;;;;;;14.65;7.00;;;;;;;4.93;70.68;100495.97;130024;1101;22550;-66
2021/05/10 02:13:25;;;;;;;11.27;7.07;;;;;;;4.94;70.74;100503.04;129947;1101;22573;-66
2021/05/10 02:15:57;;;;;;;11.87;7.10;;;;;;;4.92;70.63;100504.27;130029;1101;22645;-66
2021/05/10 02:18:27;;;;;;;9.60;6.40;;;;;;;4.89;70.36;100496.58;129982;1101;26465;-66
2021/05/10 02:20:55;;;;;;;9.90;6.30;;;;;;;4.84;70.25;100505.27;129964;1101;22658;-66
2021/05/10 02:23:25;;;;;;;14.50;7.35;;;;;;;4.80;70.66;100512.08;129932;1101;22625;-66
2021/05/10 02:25:54;;;;;;;13.50;6.47;;;;;;;4.78;70.86;100514.13;129993;1101;23437;-67
2021/05/10 02:28:24;;;;;;;14.10;7.15;;;;;;;4.74;71.03;100507.48;129985;1101;22582;-67
2021/05/10 02:30:53;;;;;;;20.43;8.07;;;;;;;4.70;71.26;100508.89;130016;1101;22509;-67
2021/05/10 02:33:23;;;;;;;10.17;6.93;;;;;;;4.66;71.14;100512.17;129962;1101;22566;-67
2021/05/10 02:35:51;;;;;;;13.20;6.73;;;;;;;4.63;71.98;100505.29;129983;1101;22772;-67
2021/05/10 02:38:20;;;;;;;11.90;7.00;;;;;;;4.62;71.88;100509.85;129975;1101;22576;-67
2021/05/10 02:40:48;;;;;;;14.60;7.00;;;;;;;4.61;71.58;100512.77;129983;1101;23215;-69
2021/05/10 02:43:17;;;;;;;12.65;6.95;;;;;;;4.61;71.63;100513.61;129990;1101;22638;-69
2021/05/10 02:45:45;;;;;;;13.75;7.25;;;;;;;4.62;71.93;100520.65;129980;1101;22658;-69
2021/05/10 02:48:13;;;;;;;11.60;6.55;;;;;;;4.63;72.13;100519.63;129980;1101;22693;-69
2021/05/10 02:50:41;;;;;;;14.83;7.70;;;;;;;4.63;72.46;100527.72;129947;1101;22609;-69
2021/05/10 02:53:09;;;;;;;18.25;7.95;;;;;;;4.66;72.93;100515.70;130000;1101;22534;-70
2021/05/10 02:55:37;;;;;;;13.05;6.95;;;;;;;4.69;72.57;100519.88;129971;1101;22595;-67
2021/05/10 02:58:05;;;;;;;14.75;7.60;;;;;;;4.73;72.67;100530.10;129958;1101;22548;-68
2021/05/10 03:00:33;;;;;;;15.40;7.40;;;;;;;4.75;72.75;100528.05;129998;1101;22648;-68
2021/05/10 03:03:01;;;;;;;13.30;7.37;;;;;;;4.79;73.00;100526.60;129981;1101;22672;-68
2021/05/10 03:05:30;;;;;;;13.07;6.97;;;;;;;4.87;73.15;100528.34;129974;1101;22736;-68
2021/05/10 03:07:58;;;;;;;14.65;7.50;;;;;;;4.91;73.53;100533.13;129983;1101;23276;-69
2021/05/10 03:10:26;;;;;;;11.17;6.80;;;;;;;4.99;73.17;100526.77;129951;1101;22629;-69
2021/05/10 03:12:55;;;;;;;12.30;7.40;;;;;;;5.09;73.25;100526.41;130020;1101;22501;-69
2021/05/10 03:15:23;;;;;;;10.03;5.77;;;;;;;5.17;73.21;100523.56;129993;1101;23351;-69
2021/05/10 03:17:52;;;;;;;11.10;6.90;;;;;;;5.28;73.39;100523.00;129970;1101;22645;-69
2021/05/10 03:20:21;;;;;;;13.33;6.67;;;;;;;5.41;73.26;100530.34;129971;1101;22605;-69
2021/05/10 03:22:52;;;;;;;11.20;6.60;;;;;;;5.53;73.82;100529.57;130044;1101;22515;-68
2021/05/10 03:25:20;;;;;;;10.70;6.45;;;;;;;5.65;74.21;100527.96;129948;1101;22677;-68
2021/05/10 03:27:52;;;;;;;10.65;6.80;;;;;;;5.79;74.09;100525.31;130015;1100;22645;-69
2021/05/10 03:30:24;;;;;;;13.65;7.70;;;;;;;5.91;73.98;100529.98;129991;1101;22507;-69
2021/05/10 03:32:52;;;;;;;9.50;6.50;;;;;;;6.05;73.40;100532.73;129974;1101;22548;-71
2021/05/10 03:35:20;;;;;;;10.80;7.10;;;;;;;6.18;73.38;100530.06;130004;1101;22690;-69
2021/05/10 03:37:50;;;;;;;12.20;7.20;;;;;;;6.31;73.43;100527.38;129946;1101;22692;-69
2021/05/10 03:40:19;;;;;;;10.75;7.15;;;;;;;6.45;72.55;100531.77;127738;1101;22756;-69
2021/05/10 03:42:48;;;;;;;13.83;7.20;;;;;;;6.61;71.96;100533.25;129943;1101;22504;-69
2021/05/10 03:45:16;;;;;;;11.13;7.47;;;;;;;6.77;71.32;100537.42;129980;1101;23743;-69
2021/05/10 03:47:44;;;;;;;10.20;6.55;;;;;;;6.91;71.28;100548.05;129944;1101;23641;-69
2021/05/10 03:50:14;;;;;;;11.15;6.90;;;;;;;7.05;71.62;100548.88;130021;1101;22661;-69
2021/05/10 03:52:42;;;;;;;11.00;6.30;;;;;;;7.20;70.60;100549.48;129974;1101;23362;-69
2021/05/10 03:55:11;;;;;;;14.60;6.20;;;;;;;7.33;69.95;100554.88;129984;1101;23201;-69
2021/05/10 03:57:39;;;;;;;10.25;6.15;;;;;;;7.48;70.07;100554.63;129974;1101;22645;-69
2021/05/10 04:00:08;;;;;;;9.35;5.95;;;;;;;7.62;69.00;100552.71;129982;1101;22626;-69
2021/05/10 04:02:37;;;;;;;13.43;7.87;;;;;;;7.78;69.55;100552.24;129959;1101;22590;-67
2021/05/10 04:15:42;;;;;;;9.95;3.60;;;;;;;8.76;63.85;100561.73;130004;1101;22580;-67
2021/05/10 04:18:10;;;;;;;7.35;4.85;;;;;;;8.96;63.70;100568.88;129948;1101;22532;-67
2021/05/10 04:20:38;;;;;;;7.40;4.60;;;;;;;9.11;63.61;100563.94;129972;1101;22611;-67
2021/05/10 04:23:06;;;;;;;5.95;4.10;;;;;;;9.24;62.95;100563.81;129972;1101;22581;-66
2021/05/10 04:25:34;;;;;;;5.30;3.20;;;;;;;9.41;60.89;100562.18;130008;1101;22675;-67
2021/05/10 04:28:02;;;;;;;4.10;3.10;;;;;;;9.58;59.88;100560.53;129962;1101;23226;-67
2021/05/10 04:30:31;;;;;;;4.50;3.30;;;;;;;9.75;59.95;100559.94;130005;1101;22620;-67
2021/05/10 04:32:59;;;;;;;5.87;3.60;;;;;;;9.89;59.02;100562.28;129975;1101;22493;-67
2021/05/10 04:35:27;;;;;;;4.65;3.50;;;;;;;10.01;57.88;100570.50;129994;1101;22615;-67
2021/05/10 04:37:55;;;;;;;7.77;3.83;;;;;;;10.15;57.52;100566.55;129980;1100;23135;-67
2021/05/10 04:40:23;;;;;;;5.00;3.30;;;;;;;10.32;57.10;100568.67;129975;1101;22686;-67
2021/05/10 04:42:51;;;;;;;4.80;3.50;;;;;;;10.50;56.17;100569.45;129990;1101;22694;-67
2021/05/10 04:45:19;;;;;;;5.55;3.68;;;;;;;10.75;55.63;100565.73;129941;1101;22621;-68
2021/05/10 04:47:48;;;;;;;3.80;2.73;;;;;;;10.97;55.12;100575.00;130042;1101;23218;-67
2021/05/10 04:50:15;;;;;;;8.20;3.27;;;;;;;11.18;54.77;100565.44;129978;1101;22641;-67
2021/05/10 04:52:44;;;;;;;3.20;2.70;;;;;;;11.38;54.33;100574.11;129960;1101;23694;-68
2021/05/10 04:55:12;;;;;;;7.53;2.53;;;;;;;11.58;53.63;100581.91;129959;1101;22608;-68
2021/05/10 04:57:40;;;;;;;3.60;2.20;;;;;;;11.77;52.94;100575.28;129978;1101;22616;-69
2021/05/10 05:00:10;;;;;;;5.03;2.20;;;;;;;11.96;52.17;100575.97;129665;1101;22564;-68
2021/05/10 05:02:38;;;;;;;2.55;2.05;;;;;;;12.15;52.02;100584.80;130028;1101;23067;-68
2021/05/10 05:05:07;;;;;;;3.83;2.78;;;;;;;12.31;51.56;100582.13;129971;1101;22660;-68
2021/05/10 05:07:35;;;;;;;4.48;2.30;;;;;;;12.50;50.63;100587.41;129984;1101;22648;-68
2021/05/10 05:10:03;;;;;;;5.35;2.43;;;;;;;12.65;49.60;100580.33;129998;1101;22563;-68
2021/05/10 05:12:31;;;;;;;3.25;2.43;;;;;;;12.80;48.78;100584.41;130000;1101;22612;-68
2021/05/10 05:15:01;;;;;;;5.45;2.40;;;;;;;12.92;48.31;100577.80;129955;1101;23381;-68
2021/05/10 05:17:28;;;;;;;3.13;2.40;;;;;;;13.00;48.08;100582.01;130009;1101;22574;-68
2021/05/10 05:19:57;;;;;;;8.65;2.50;;;;;;;13.09;47.49;100580.54;129978;1101;22645;-68
2021/05/10 05:22:25;;;;;;;3.15;2.25;;;;;;;13.16;47.73;100581.22;129951;1101;23224;-68
2021/05/10 05:24:56;;;;;;;4.45;1.85;;;;;;;13.22;47.79;100582.97;129938;1101;23237;-67
2021/05/10 05:27:25;;;;;;;2.80;2.00;;;;;;;13.30;46.94;100578.97;130014;1101;22543;-69
2021/05/10 05:29:52;;;;;;;4.28;2.03;;;;;;;13.33;46.85;100582.05;130026;1101;22984;-68
2021/05/10 05:32:22;;;;;;;4.53;2.10;;;;;;;13.38;46.63;100589.52;129978;1101;23103;-68
2021/05/10 05:34:52;;;;;;;3.48;2.08;;;;;;;13.41;46.42;100587.12;130007;1101;22572;-68
2021/05/10 05:37:20;;;;;;;4.58;2.23;;;;;;;13.50;46.20;100586.67;129989;1101;22596;-69
2021/05/10 05:39:48;;;;;;;4.95;1.88;;;;;;;13.60;45.78;100586.81;130009;1101;23344;-68
2021/05/10 05:42:15;;;;;;;6.73;2.13;;;;;;;13.67;45.80;100588.31;129949;1101;22502;-68
2021/05/10 05:44:48;;;;;;;2.43;1.88;;;;;;;13.75;45.41;100593.34;129985;1101;22561;-68
2021/05/10 05:47:28;;;;;;;3.73;2.00;;;;;;;13.84;45.23;100590.19;129913;1101;22545;-68
2021/05/10 05:49:56;;;;;;;4.15;1.93;;;;;;;13.91;45.17;100588.08;129979;1101;22547;-68
2021/05/10 05:52:24;;;;;;;4.10;2.23;;;;;;;13.96;44.29;100586.23;129916;1101;23281;-69
2021/05/10 05:54:53;;;;;;;3.53;2.35;;;;;;;14.00;44.61;100579.14;129976;1101;23201;-67
2021/05/10 05:57:21;;;;;;;4.33;1.88;;;;;;;14.01;44.46;100589.02;129669;1101;22981;-66
2021/05/10 05:59:49;;;;;;;3.68;2.40;;;;;;;14.01;44.25;100589.02;129892;1101;22557;-66
2021/05/10 06:02:17;;;;;;;3.08;1.95;;;;;;;14.00;44.66;100583.80;129929;1101;22556;-65
2021/05/10 06:04:45;;;;;;;2.90;1.85;;;;;;;14.03;44.46;100588.77;129939;1101;23357;-66
2021/05/10 06:07:14;;;;;;;3.88;2.13;;;;;;;13.99;44.10;100577.52;129945;1101;23471;-66
2021/05/10 06:09:42;;;;;;;2.50;1.90;;;;;;;14.06;44.05;100575.40;129989;1101;22689;-67
2021/05/10 06:12:10;;;;;;;5.35;2.20;;;;;;;14.12;44.07;100584.52;129916;1101;22685;-67
2021/05/10 06:14:38;;;;;;;4.75;2.45;;;;;;;14.17;43.45;100587.30;129974;1101;22502;-67
2021/05/10 06:17:08;;;;;;;4.10;2.60;;;;;;;14.13;43.14;100578.80;129913;1101;22662;-67
2021/05/10 06:19:36;;;;;;;3.33;2.38;;;;;;;14.10;44.16;100584.77;129967;1101;23726;-68
2021/05/10 06:22:04;;;;;;;4.30;2.10;;;;;;;14.11;43.91;100586.44;129932;1101;22533;-67
2021/05/10 06:24:32;;;;;;;4.40;2.38;;;;;;;14.12;43.74;100579.05;129961;1101;23323;-65
2021/05/10 06:27:00;;;;;;;3.18;2.28;;;;;;;14.15;44.18;100583.98;129985;1101;22660;-68
2021/05/10 06:29:28;;;;;;;3.65;2.08;;;;;;;14.19;44.03;100595.28;129929;1101;23229;-64
2021/05/10 06:31:56;;;;;;;3.58;2.30;;;;;;;14.24;43.98;100596.18;129969;1101;22547;-66
2021/05/10 06:34:24;;;;;;;4.58;2.40;;;;;;;14.30;43.25;100592.39;129963;1101;23138;-66
2021/05/10 06:36:52;;;;;;;3.55;2.13;;;;;;;14.31;43.23;100591.31;130032;1101;22669;-66
2021/05/10 06:39:20;;;;;;;3.05;1.70;;;;;;;14.32;43.65;100594.88;129922;1101;22630;-66
2021/05/10 06:44:07;;;;;;;3.65;2.15;;;;;;;14.31;42.76;100587.74;125541;1090;25839;-65
2021/05/10 06:46:35;;;;;;;11.45;3.80;;;;;;;14.32;42.41;100589.40;129988;1101;23357;-65
2021/05/10 06:49:04;;;;;;;3.48;2.18;;;;;;;14.35;42.64;100597.95;129973;1101;23278;-65
2021/05/10 06:51:31;;;;;;;3.53;2.00;;;;;;;14.40;42.42;100602.70;129961;1101;22584;-65
2021/05/10 06:53:59;;;;;;;2.63;1.95;;;;;;;14.47;41.76;100595.92;129966;1101;22597;-65
2021/05/10 06:56:27;;;;;;;2.48;1.45;;;;;;;14.54;41.82;100595.73;130005;1101;23302;-66
2021/05/10 06:58:55;;;;;;;2.03;1.58;;;;;;;14.60;41.57;100588.37;129808;1101;22522;-66
2021/05/10 07:01:23;;;;;;;2.93;2.08;;;;;;;14.62;41.52;100583.45;129989;1101;22630;-66
2021/05/10 07:03:51;;;;;;;2.63;2.18;;;;;;;14.65;42.22;100589.27;129942;1101;22700;-65
2021/05/10 07:06:20;;;;;;;2.55;1.88;;;;;;;14.66;42.85;100587.34;130003;1101;22621;-65
2021/05/10 07:08:49;;;;;;;4.30;1.90;;;;;;;14.71;42.33;100590.16;129947;1101;22623;-66
2021/05/10 07:11:17;;;;;;;3.70;2.13;;;;;;;14.77;42.47;100589.09;129954;1101;22555;-66
2021/05/10 07:13:45;;;;;;;3.90;1.88;;;;;;;14.78;40.83;100583.36;130020;1101;22537;-66
2021/05/10 07:16:12;;;;;;;3.25;1.88;;;;;;;14.78;41.16;100583.36;129891;1101;22577;-66
2021/05/10 07:18:41;;;;;;;2.40;1.58;;;;;;;14.82;40.70;100587.24;129948;1101;22664;-66
2021/05/10 07:21:09;;;;;;;3.68;2.30;;;;;;;14.87;40.51;100589.19;129615;1101;22598;-66
2021/05/10 07:23:37;;;;;;;2.00;1.68;;;;;;;14.90;40.11;100587.84;129966;1101;22567;-66
2021/05/10 07:26:05;;;;;;;2.68;1.90;;;;;;;14.92;39.87;100588.41;129854;1101;22638;-66
2021/05/10 07:28:33;;;;;;;2.13;1.83;;;;;;;14.90;39.56;100583.19;129957;1101;22578;-66
2021/05/10 07:31:01;;;;;;;3.18;1.93;;;;;;;14.92;39.68;100580.19;129982;1101;22580;-66
2021/05/10 07:33:29;;;;;;;3.28;2.40;;;;;;;14.92;39.26;100583.75;129954;1101;22524;-67
2021/05/10 07:35:57;;;;;;;3.98;2.25;;;;;;;14.92;39.37;100581.01;129966;1101;22503;-66
2021/05/10 07:38:25;;;;;;;3.88;2.43;;;;;;;14.88;38.57;100576.30;129990;1101;22557;-66
2021/05/10 07:40:53;;;;;;;4.43;2.10;;;;;;;14.79;38.78;100581.44;129682;1102;22688;-66
2021/05/10 07:43:21;;;;;;;5.73;2.40;;;;;;;14.74;38.87;100575.89;129975;1101;22552;-66
2021/05/10 07:45:49;;;;;;;2.53;2.10;;;;;;;14.72;38.99;100564.34;129966;1101;23114;-66
2021/05/10 07:48:16;;;;;;;3.95;2.43;;;;;;;14.72;39.74;100562.44;129931;1101;24428;-66
2021/05/10 07:50:45;;;;;;;3.03;1.85;;;;;;;14.73;39.51;100568.75;129919;1101;24482;-66
2021/05/10 07:53:13;;;;;;;2.60;1.60;;;;;;;14.75;38.38;100555.60;130017;1101;22575;-66
2021/05/10 07:55:41;;;;;;;1.83;1.40;;;;;;;14.75;38.22;100559.17;130014;1101;23347;-66
2021/05/10 07:58:10;;;;;;;5.65;2.03;;;;;;;14.74;37.67;100557.52;129952;1101;22553;-66
2021/05/10 08:00:41;;;;;;;3.65;2.48;;;;;;;14.74;38.23;100551.20;129999;1101;22630;-66
2021/05/10 08:03:16;;;;;;;4.68;2.55;;;;;;;14.74;38.44;100549.29;129974;1101;22660;-66
2021/05/10 08:05:44;;;;;;;2.73;2.13;;;;;;;14.72;38.23;100551.45;129983;1101;22663;-66
2021/05/10 08:08:13;;;;;;;2.70;1.75;;;;;;;14.70;38.97;100555.58;129959;1101;22728;-66
2021/05/10 08:10:41;;;;;;;6.80;2.83;;;;;;;14.71;38.95;100557.23;129787;1101;23081;-66
2021/05/10 08:13:10;;;;;;;4.53;2.25;;;;;;;14.75;38.72;100558.34;129977;1101;22661;-67
2021/05/10 08:15:58;;;;;;;3.80;2.63;;;;;;;14.75;38.61;100559.17;130025;1101;23303;-66
2021/05/10 08:18:26;;;;;;;3.93;2.60;;;;;;;14.74;38.45;100553.95;129943;1101;22540;-67
2021/05/10 08:20:57;;;;;;;3.85;2.25;;;;;;;14.72;38.81;100556.95;129941;1101;23603;-66
2021/05/10 08:23:25;;;;;;;3.50;2.35;;;;;;;14.72;38.75;100545.14;129927;1101;22536;-66
2021/05/10 08:25:53;;;;;;;4.43;2.63;;;;;;;14.73;38.38;100552.29;129979;1101;22933;-67
2021/05/10 08:28:21;;;;;;;5.30;3.08;;;;;;;14.73;38.43;100550.38;129947;1101;22558;-67
2021/05/10 08:30:49;;;;;;;4.23;2.53;;;;;;;14.76;38.28;100547.12;129975;1101;22699;-67
2021/05/10 08:33:17;;;;;;;3.95;2.40;;;;;;;14.78;37.91;100541.38;129974;1101;23192;-67
2021/05/10 08:35:45;;;;;;;3.30;2.08;;;;;;;14.80;38.15;100540.03;130018;1101;22598;-67
2021/05/10 08:38:14;;;;;;;4.80;2.40;;;;;;;14.81;39.11;100530.71;129937;1101;22526;-67
2021/05/10 08:40:43;;;;;;;6.08;3.38;;;;;;;14.84;39.78;100521.97;129988;1101;22957;-67
2021/05/10 08:43:37;;;;;;;3.55;2.30;;;;;;;14.89;40.80;100526.64;129927;1101;22575;-66
2021/05/10 08:46:06;;;;;;;5.25;2.78;;;;;;;14.96;40.24;100519.03;129994;1101;23369;-66
2021/05/10 08:48:34;;;;;;;3.40;2.63;;;;;;;15.03;40.80;100525.11;129996;1101;22544;-66
2021/05/10 08:51:02;;;;;;;6.70;2.75;;;;;;;15.10;40.11;100514.75;129991;1101;22617;-65
2021/05/10 08:53:34;;;;;;;4.38;2.20;;;;;;;15.14;39.53;100502.16;129950;1101;22574;-66
2021/05/10 08:56:05;;;;;;;3.50;2.38;;;;;;;15.20;38.81;100495.59;130006;1101;22514;-66
2021/05/10 08:58:43;;;;;;;4.80;2.68;;;;;;;15.24;40.51;100495.90;129964;1101;23171;-67
2021/05/10 09:01:12;;;;;;;3.35;2.58;;;;;;;15.30;39.31;100499.48;129917;1101;22556;-67
2021/05/10 09:03:44;;;;;;;3.80;2.73;;;;;;;15.34;38.40;100508.85;129948;1101;22617;-67
2021/05/10 09:06:14;;;;;;;5.03;2.50;;;;;;;15.35;36.71;100494.86;129947;1101;22525;-67
2021/05/10 09:08:43;;;;;;;2.93;2.15;;;;;;;15.34;37.71;100492.38;129956;1101;22565;-67
2021/05/10 09:11:12;;;;;;;4.18;2.68;;;;;;;15.35;38.63;100496.78;129990;1101;22609;-67
2021/05/10 09:13:44;;;;;;;6.70;3.15;;;;;;;15.37;38.18;100494.60;129944;1101;22617;-67
2021/05/10 09:16:14;;;;;;;6.20;2.73;;;;;;;15.37;37.76;100489.11;129963;1101;22525;-66
2021/05/10 09:18:59;;;;;;;6.93;3.25;;;;;;;15.40;38.16;100489.41;129979;1101;23135;-66
2021/05/10 09:21:28;;;;;;;3.63;2.38;;;;;;;15.42;37.67;100480.91;129992;1101;22502;-65
2021/05/10 09:24:20;;;;;;;6.43;2.13;;;;;;;15.43;38.21;100483.39;129984;1101;22567;-65
2021/05/10 09:27:26;;;;;;;4.18;2.98;;;;;;;15.46;38.14;100482.83;129693;1101;23015;-70
2021/05/10 09:30:21;;;;;;;4.63;2.80;;;;;;;15.47;36.28;100478.17;129972;1101;22646;-66
2021/05/10 09:32:53;;;;;;;3.38;2.63;;;;;;;15.50;36.58;100480.39;130030;1101;22582;-66
2021/05/10 09:35:26;;;;;;;2.80;2.33;;;;;;;15.53;36.76;100477.11;129907;1101;23400;-66
2021/05/10 09:37:57;;;;;;;4.88;2.60;;;;;;;15.57;35.38;100478.27;129994;1101;22595;-66
2021/05/10 09:40:28;;;;;;;7.25;2.50;;;;;;;15.59;36.90;100484.30;127454;1101;23196;-69
2021/05/10 09:43:08;;;;;;;7.05;2.98;;;;;;;15.62;37.85;100472.78;129950;1101;22560;-69
2021/05/10 09:45:38;;;;;;;3.53;2.38;;;;;;;15.68;38.01;100468.14;129933;1101;22624;-69
2021/05/10 09:48:20;;;;;;;7.33;3.03;;;;;;;15.73;37.97;100466.23;130012;1101;23519;-70
2021/05/10 09:51:02;;;;;;;7.75;3.08;;;;;;;15.79;38.26;100456.09;129963;1101;22631;-69
2021/05/10 09:53:37;;;;;;;4.53;2.60;;;;;;;15.86;38.59;100459.43;130027;1101;22573;-69
2021/05/10 09:58:58;;;;;;;5.35;2.80;;;;;;;15.98;37.66;100451.77;130010;1101;22518;-70
2021/05/10 10:01:39;;;;;;;5.45;2.43;;;;;;;16.04;37.84;100455.33;129970;1101;22718;-69
2021/05/10 10:04:07;;;;;;;4.95;2.58;;;;;;;16.09;37.74;100450.69;130005;1101;22587;-69
2021/05/10 10:06:37;;;;;;;6.40;3.10;;;;;;;16.13;36.92;100443.55;130001;1101;22501;-69
2021/05/10 10:09:06;;;;;;;3.13;2.30;;;;;;;16.18;36.48;100443.55;129998;1101;22618;-69
2021/05/10 10:11:34;;;;;;;5.38;2.60;;;;;;;16.20;36.29;100441.35;129956;1101;23486;-70
2021/05/10 10:14:02;;;;;;;4.40;2.85;;;;;;;16.23;36.37;100446.31;129961;1101;22542;-69
2021/05/10 10:16:33;;;;;;;5.48;2.95;;;;;;;16.23;34.72;100434.48;129980;1101;23421;-70
2021/05/10 10:19:02;;;;;;;4.40;2.95;;;;;;;16.19;34.44;100431.45;130042;1101;22603;-70
2021/05/10 10:21:31;;;;;;;5.65;3.13;;;;;;;16.16;35.73;100428.41;129923;1101;22597;-69
2021/05/10 10:24:01;;;;;;;5.30;2.85;;;;;;;16.18;36.27;100424.30;129980;1101;23486;-69
2021/05/10 10:26:49;;;;;;;8.78;3.08;;;;;;;16.21;34.56;100423.75;129950;1101;22606;-69
2021/05/10 10:29:17;;;;;;;8.63;3.93;;;;;;;16.22;35.52;100424.58;129948;1101;22537;-69
2021/05/10 10:31:46;;;;;;;4.15;2.65;;;;;;;16.20;34.82;100424.85;129901;1101;22626;-69
2021/05/10 10:34:26;;;;;;;9.35;3.50;;;;;;;16.19;34.92;100414.95;129995;1101;22542;-70
2021/05/10 10:37:00;;;;;;;6.13;3.07;;;;;;;16.19;34.36;100412.20;129894;1101;22530;-69
2021/05/10 10:39:30;;;;;;;4.05;2.65;;;;;;;16.20;34.62;100407.53;129992;1101;22570;-66
2021/05/10 10:42:12;;;;;;;4.58;2.63;;;;;;;16.21;35.15;100411.93;129989;1101;23415;-66
2021/05/10 10:44:45;;;;;;;3.53;2.73;;;;;;;16.20;33.98;100391.86;129998;1101;22661;-66
2021/05/10 10:47:18;;;;;;;3.68;2.88;;;;;;;16.19;32.64;100389.38;129967;1101;23300;-66
2021/05/10 10:49:46;;;;;;;4.48;2.50;;;;;;;16.18;34.44;100398.72;130011;1101;22616;-67
2021/05/10 10:52:20;;;;;;;6.63;3.13;;;;;;;16.19;35.26;100400.38;129989;1101;22559;-66
2021/05/10 10:55:23;;;;;;;6.40;2.75;;;;;;;16.21;34.67;100389.94;129929;1101;22588;-66
2021/05/10 10:57:51;;;;;;;4.83;3.25;;;;;;;16.24;33.80;100392.14;129587;1104;22571;-67
2021/05/10 11:00:19;;;;;;;5.23;3.18;;;;;;;16.26;34.27;100387.20;129646;1104;22600;-66
2021/05/10 11:02:52;;;;;;;4.10;2.60;;;;;;;16.30;34.67;100392.98;129643;1104;22605;-67
2021/05/10 11:05:22;;;;;;;3.25;2.63;;;;;;;16.33;33.52;100393.23;129577;1104;22616;-66
2021/05/10 11:08:07;;;;;;;3.95;2.65;;;;;;;16.34;33.35;100383.06;129595;1104;22626;-66
2021/05/10 11:10:55;;;;;;;4.98;2.90;;;;;;;16.36;32.98;100378.94;129663;1104;23471;-66
2021/05/10 11:13:26;;;;;;;3.23;2.70;;;;;;;16.37;33.18;100364.09;129589;1104;22622;-66
2021/05/10 11:15:55;;;;;;;6.93;3.08;;;;;;;16.39;35.35;100363.81;129616;1104;22709;-66
2021/05/10 11:18:34;;;;;;;9.65;2.93;;;;;;;16.42;35.11;100355.02;129678;1104;22614;-66
2021/05/10 11:21:03;;;;;;;4.35;3.43;;;;;;;16.48;35.97;100357.47;129622;1104;23485;-68
2021/05/10 11:23:31;;;;;;;5.75;2.93;;;;;;;16.54;34.68;100361.88;129632;1104;23123;-68
2021/05/10 11:26:01;;;;;;;4.45;3.03;;;;;;;16.59;34.92;100356.35;129644;1104;22779;-68
2021/05/10 11:28:28;;;;;;;5.43;2.58;;;;;;;16.64;34.23;100344.55;129636;1104;23654;-66
2021/05/10 11:31:07;;;;;;;15.55;4.20;;;;;;;16.68;35.09;100344.83;129606;1104;22546;-68
2021/05/10 11:33:54;;;;;;;4.43;2.83;;;;;;;16.73;35.79;100351.16;129636;1102;22944;-67
2021/05/10 11:36:25;;;;;;;5.40;3.00;;;;;;;16.79;33.93;100340.95;129977;1101;22617;-68
2021/05/10 11:38:57;;;;;;;5.73;2.90;;;;;;;16.81;33.20;100335.99;130010;1101;22573;-66
2021/05/10 11:41:34;;;;;;;2.95;2.30;;;;;;;16.82;33.71;100334.89;130000;1101;22570;-68
2021/05/10 11:44:04;;;;;;;5.48;2.55;;;;;;;16.82;33.60;100332.97;130019;1101;22533;-65
2021/05/10 11:46:42;;;;;;;5.15;2.75;;;;;;;16.84;33.03;100335.44;129947;1101;22579;-67